Time;durP1;ratioP1;P1;durP2;ratioP2;P2;SDS_P1;SDS_P2;PMS_P1;PMS_P2;Temp;Humidity;BMP_temperature;BMP_pressure;BME280_temperature;BME280_humidity;BME280_pressure;Samples;Min_cycle;Max_cycle;Signal;HPM_P1;HPM_P2
2021/03/05 00:02:18;;;;;;;16.90;5.93;;;2.30;97.20;;;;;;5010470;28;20025;-79
2021/03/05 00:04:47;;;;;;;21.88;6.13;;;2.30;97.20;;;;;;4991979;28;20029;-80
2021/03/05 00:07:13;;;;;;;28.58;8.20;;;2.30;97.30;;;;;;4990095;28;20039;-79
2021/03/05 00:09:38;;;;;;;28.75;7.15;;;2.30;97.40;;;;;;4975450;28;20048;-79
2021/03/05 00:12:04;;;;;;;15.45;7.22;;;2.30;97.60;;;;;;5005341;28;20030;-79
2021/03/05 00:14:30;;;;;;;27.58;6.95;;;2.40;97.50;;;;;;4990342;28;20042;-79
2021/03/05 00:16:55;;;;;;;23.13;6.57;;;2.40;97.20;;;;;;4979267;28;20125;-79
2021/03/05 00:19:21;;;;;;;16.55;5.88;;;2.50;97.20;;;;;;4974822;28;20654;-79
2021/03/05 00:21:46;;;;;;;12.93;5.22;;;2.50;97.10;;;;;;4993006;28;20029;-80
2021/03/05 00:24:12;;;;;;;13.07;4.95;;;2.60;97.00;;;;;;4975185;28;20390;-79
2021/03/05 00:26:38;;;;;;;26.70;6.75;;;2.60;97.00;;;;;;4973681;28;20044;-79
2021/03/05 00:29:03;;;;;;;20.40;5.47;;;2.60;96.90;;;;;;5007762;28;20517;-79
2021/03/05 00:31:29;;;;;;;25.17;6.65;;;2.70;97.00;;;;;;5008279;28;20060;-79
2021/03/05 00:33:54;;;;;;;26.88;6.53;;;2.70;96.80;;;;;;4993235;28;20450;-79
2021/03/05 00:36:20;;;;;;;12.75;5.00;;;2.60;97.10;;;;;;4975165;28;20386;-79
2021/03/05 00:38:45;;;;;;;21.30;7.28;;;2.60;97.10;;;;;;5007098;28;20117;-79
2021/03/05 00:41:11;;;;;;;21.38;7.57;;;2.60;97.20;;;;;;4993636;28;20018;-79
2021/03/05 00:43:36;;;;;;;17.27;6.22;;;2.50;97.50;;;;;;4975850;28;20043;-79
2021/03/05 00:46:02;;;;;;;27.88;7.82;;;2.50;97.50;;;;;;5022873;28;20026;-79
2021/03/05 00:48:27;;;;;;;22.10;7.90;;;2.50;97.50;;;;;;4993989;28;20033;-79
2021/03/05 00:50:53;;;;;;;20.67;7.55;;;2.50;97.70;;;;;;4993335;28;20025;-79
2021/03/05 00:53:18;;;;;;;27.90;8.57;;;2.50;97.40;;;;;;5008981;28;20112;-79
2021/03/05 00:55:44;;;;;;;23.42;7.50;;;2.50;97.60;;;;;;4992141;28;20037;-79
2021/03/05 00:58:09;;;;;;;35.50;10.80;;;2.50;97.60;;;;;;4995762;28;20029;-79
2021/03/05 01:00:35;;;;;;;29.27;9.25;;;2.40;97.50;;;;;;4991012;28;20108;-79
2021/03/05 01:03:01;;;;;;;30.77;9.82;;;2.40;97.60;;;;;;5008442;28;20498;-79
2021/03/05 01:05:26;;;;;;;22.75;9.57;;;2.50;97.50;;;;;;4991304;28;20030;-79
2021/03/05 01:07:52;;;;;;;29.50;9.10;;;2.60;97.20;;;;;;4990252;28;20041;-79
2021/03/05 01:10:17;;;;;;;39.05;10.43;;;2.70;97.20;;;;;;5008610;28;20108;-79
2021/03/05 01:12:43;;;;;;;41.72;11.07;;;2.50;97.40;;;;;;4989982;28;20034;-79
2021/03/05 01:15:09;;;;;;;41.33;11.82;;;2.50;97.70;;;;;;4997716;28;20120;-79
2021/03/05 01:17:34;;;;;;;29.73;11.00;;;2.50;97.70;;;;;;4976832;28;20061;-79
2021/03/05 01:20:00;;;;;;;45.13;13.13;;;2.50;97.80;;;;;;5009392;28;20032;-79
2021/03/05 01:22:25;;;;;;;39.55;12.65;;;2.50;97.80;;;;;;4976890;28;20029;-79
2021/03/05 01:24:51;;;;;;;35.03;13.52;;;2.50;98.00;;;;;;4991406;28;21193;-79
2021/03/05 01:27:17;;;;;;;37.17;14.88;;;2.50;98.00;;;;;;4974439;28;20037;-79
2021/03/05 01:29:42;;;;;;;43.08;15.00;;;2.50;98.00;;;;;;4991836;28;20507;-79
2021/03/05 01:32:08;;;;;;;55.50;20.52;;;2.50;98.00;;;;;;5004077;28;20036;-79
2021/03/05 01:34:33;;;;;;;56.08;18.23;;;2.50;98.10;;;;;;4975508;28;20042;-79
2021/03/05 01:36:59;;;;;;;49.92;17.90;;;2.50;98.10;;;;;;4992965;28;20029;-79
2021/03/05 01:39:24;;;;;;;55.05;17.65;;;2.50;98.10;;;;;;4976148;28;20022;-79
2021/03/05 01:41:50;;;;;;;57.05;18.55;;;2.50;98.10;;;;;;4989882;28;20026;-79
2021/03/05 01:44:16;;;;;;;45.55;17.65;;;2.50;98.10;;;;;;5008136;28;20109;-79
2021/03/05 01:46:41;;;;;;;47.03;18.73;;;2.60;98.30;;;;;;4974922;28;20029;-79
2021/03/05 01:49:07;;;;;;;35.15;14.02;;;2.60;98.00;;;;;;4981247;28;20036;-79
2021/03/05 01:51:33;;;;;;;33.45;14.68;;;2.60;98.10;;;;;;4992661;28;20029;-79
2021/03/05 01:53:59;;;;;;;40.13;16.05;;;2.60;98.10;;;;;;5007668;28;20537;-80
2021/03/05 01:56:39;;;;;;;36.75;16.50;;;2.60;98.10;;;;;;4982526;28;20040;-79
2021/03/05 01:59:06;;;;;;;27.00;12.80;;;2.70;98.30;;;;;;5005716;28;20144;-79
2021/03/05 02:01:32;;;;;;;33.40;15.18;;;2.70;98.30;;;;;;4975689;28;20046;-79
2021/03/05 02:03:58;;;;;;;29.25;15.77;;;2.70;98.00;;;;;;5004598;28;20026;-79
2021/03/05 02:06:23;;;;;;;27.88;15.18;;;2.70;98.10;;;;;;4982521;28;20541;-79
2021/03/05 02:08:49;;;;;;;31.58;14.93;;;2.70;98.10;;;;;;4979405;28;20366;-79
2021/03/05 02:11:19;;;;;;;26.40;15.27;;;2.70;98.00;;;;;;4975194;28;20488;-79
2021/03/05 02:13:45;;;;;;;27.00;14.57;;;2.70;98.10;;;;;;4986802;28;20448;-79
2021/03/05 02:16:22;;;;;;;32.35;18.17;;;2.70;98.30;;;;;;4980945;28;20030;-79
2021/03/05 02:19:05;;;;;;;25.88;15.57;;;2.70;98.20;;;;;;5005108;28;20091;-79
2021/03/05 02:21:54;;;;;;;28.30;14.88;;;2.70;98.20;;;;;;4990934;28;20382;-79
2021/03/05 02:24:49;;;;;;;31.35;16.45;;;2.70;98.10;;;;;;4989839;28;20029;-79
2021/03/05 02:27:56;;;;;;;26.65;14.95;;;2.70;98.00;;;;;;4932862;28;20038;-79
2021/03/05 02:30:56;;;;;;;24.42;15.10;;;2.70;97.90;;;;;;5018686;28;20035;-79
2021/03/05 02:33:41;;;;;;;27.17;15.68;;;2.70;98.10;;;;;;5019453;28;20100;-79
2021/03/05 02:36:09;;;;;;;27.85;16.23;;;2.70;98.00;;;;;;5006162;28;20037;-79
2021/03/05 02:38:35;;;;;;;26.23;13.98;;;2.70;98.10;;;;;;4990091;28;20037;-79
2021/03/05 02:41:01;;;;;;;28.75;14.73;;;2.70;98.20;;;;;;5021637;28;20051;-79
2021/03/05 02:43:28;;;;;;;28.20;15.57;;;2.70;98.00;;;;;;4990119;28;20025;-79
2021/03/05 02:46:00;;;;;;;24.30;14.30;;;2.70;98.00;;;;;;4988954;28;20037;-79
2021/03/05 02:48:29;;;;;;;29.10;15.63;;;2.70;98.00;;;;;;4977300;28;20450;-79
2021/03/05 02:50:55;;;;;;;26.65;14.55;;;2.70;98.00;;;;;;5007569;28;20026;-79
2021/03/05 02:53:22;;;;;;;21.63;12.20;;;2.70;98.30;;;;;;4971453;28;20042;-79
2021/03/05 02:55:50;;;;;;;22.98;12.98;;;2.70;98.00;;;;;;5007772;28;21611;-79
2021/03/05 02:58:16;;;;;;;25.23;15.52;;;2.70;97.90;;;;;;4974144;28;20057;-79
2021/03/05 03:00:42;;;;;;;23.92;12.63;;;2.70;97.90;;;;;;4991659;28;20041;-79
2021/03/05 03:03:07;;;;;;;20.30;12.38;;;2.70;97.70;;;;;;5001018;28;20033;-79
2021/03/05 03:05:33;;;;;;;21.48;12.75;;;2.70;97.70;;;;;;4994006;28;20036;-79
2021/03/05 03:07:58;;;;;;;22.67;13.52;;;2.70;97.70;;;;;;5011016;28;20038;-79
2021/03/05 03:10:26;;;;;;;25.63;15.73;;;2.70;97.50;;;;;;4993087;28;20030;-79
2021/03/05 03:12:52;;;;;;;21.83;13.98;;;2.70;97.70;;;;;;5009044;28;20048;-79
2021/03/05 03:15:18;;;;;;;25.90;13.18;;;2.60;97.80;;;;;;4979266;28;20026;-79
2021/03/05 03:17:44;;;;;;;25.10;14.73;;;2.60;97.60;;;;;;4992925;28;20048;-79
2021/03/05 03:20:12;;;;;;;22.00;13.85;;;2.60;97.80;;;;;;4979347;28;20037;-79
2021/03/05 03:22:38;;;;;;;25.65;14.73;;;2.60;97.80;;;;;;4989588;28;20034;-78
2021/03/05 03:25:04;;;;;;;24.95;13.65;;;2.60;97.80;;;;;;5006258;28;20420;-78
2021/03/05 03:27:30;;;;;;;21.08;13.25;;;2.60;97.90;;;;;;4992970;28;20690;-78
2021/03/05 03:29:55;;;;;;;23.50;13.23;;;2.60;98.00;;;;;;4995587;28;20165;-78
2021/03/05 03:32:21;;;;;;;22.48;13.35;;;2.60;97.70;;;;;;4978626;28;20104;-78
2021/03/05 03:34:47;;;;;;;24.23;14.02;;;2.60;97.70;;;;;;5011967;28;20053;-78
2021/03/05 03:37:12;;;;;;;20.58;13.00;;;2.50;97.80;;;;;;4979376;28;20053;-79
2021/03/05 03:39:38;;;;;;;21.05;13.32;;;2.50;97.80;;;;;;4993005;28;20433;-79
2021/03/05 03:42:04;;;;;;;20.48;12.88;;;2.50;97.80;;;;;;5007258;28;20052;-79
2021/03/05 03:44:30;;;;;;;18.73;11.30;;;2.50;97.70;;;;;;4976618;28;20092;-78
2021/03/05 03:46:55;;;;;;;20.33;12.82;;;2.50;97.60;;;;;;4992145;28;20137;-79
2021/03/05 03:49:35;;;;;;;17.80;12.27;;;2.50;97.60;;;;;;5009597;28;20026;-78
2021/03/05 03:52:05;;;;;;;19.52;11.95;;;2.50;97.80;;;;;;4994548;28;20102;-79
2021/03/05 03:54:31;;;;;;;22.17;11.68;;;2.40;97.80;;;;;;4975566;28;20401;-78
2021/03/05 03:56:59;;;;;;;19.52;9.48;;;2.50;97.70;;;;;;4993979;28;20040;-79
2021/03/05 03:59:24;;;;;;;15.57;9.23;;;2.40;97.70;;;;;;4973322;28;20044;-78
2021/03/05 04:01:50;;;;;;;15.93;10.25;;;2.40;97.70;;;;;;4994091;28;20393;-79
2021/03/05 04:04:15;;;;;;;16.50;9.35;;;2.40;97.70;;;;;;4980152;28;20033;-78
2021/03/05 04:06:43;;;;;;;14.75;9.00;;;2.40;97.70;;;;;;4972115;28;20056;-78
2021/03/05 04:09:09;;;;;;;12.45;7.57;;;2.40;97.60;;;;;;5001521;28;20433;-78
2021/03/05 04:11:34;;;;;;;14.15;7.85;;;2.40;97.70;;;;;;4996906;28;20274;-78
2021/03/05 04:14:00;;;;;;;11.80;9.15;;;2.40;97.50;;;;;;5010448;28;20052;-78
2021/03/05 04:16:25;;;;;;;12.65;7.82;;;2.40;97.50;;;;;;4976993;28;21940;-78
2021/03/05 04:18:51;;;;;;;15.63;7.78;;;2.30;97.60;;;;;;5007283;28;20438;-78
2021/03/05 04:21:20;;;;;;;11.75;6.85;;;2.30;97.50;;;;;;5007202;28;20417;-78
2021/03/05 04:23:46;;;;;;;12.50;5.95;;;2.30;97.50;;;;;;5007917;28;20540;-79
2021/03/05 04:26:11;;;;;;;13.02;7.53;;;2.30;97.40;;;;;;4975297;28;20029;-78
2021/03/05 04:28:37;;;;;;;12.65;6.78;;;2.30;97.50;;;;;;4992844;28;20033;-78
2021/03/05 04:31:02;;;;;;;9.27;5.75;;;2.30;97.60;;;;;;5023941;28;20021;-79
2021/03/05 04:33:28;;;;;;;12.27;5.82;;;2.40;97.50;;;;;;4996325;28;20029;-78
2021/03/05 04:35:53;;;;;;;11.07;5.63;;;2.30;97.30;;;;;;4993239;28;20033;-78
2021/03/05 04:38:19;;;;;;;7.82;5.28;;;2.30;97.30;;;;;;5004467;28;20085;-78
2021/03/05 04:40:44;;;;;;;9.68;5.72;;;2.20;97.40;;;;;;5009264;28;20057;-78
2021/03/05 04:43:10;;;;;;;6.72;4.95;;;2.20;97.30;;;;;;4998164;28;20064;-78
2021/03/05 04:45:36;;;;;;;8.38;5.00;;;2.20;97.30;;;;;;5008953;28;20044;-78
2021/03/05 04:48:01;;;;;;;7.57;4.28;;;2.10;97.30;;;;;;5008543;28;20041;-78
2021/03/05 04:50:27;;;;;;;7.85;3.55;;;2.10;97.20;;;;;;4992376;28;20030;-78
2021/03/05 04:52:52;;;;;;;8.52;2.97;;;2.00;97.20;;;;;;5005239;28;20529;-78
2021/03/05 04:55:18;;;;;;;4.47;3.00;;;2.10;97.20;;;;;;5008243;28;20052;-78
2021/03/05 04:57:43;;;;;;;5.35;2.95;;;2.00;97.00;;;;;;5006923;28;20056;-78
2021/03/05 05:00:09;;;;;;;6.03;3.03;;;2.00;97.10;;;;;;4999058;28;20120;-78
2021/03/05 05:02:35;;;;;;;4.15;2.47;;;1.90;97.10;;;;;;4980224;28;20366;-79
2021/03/05 05:05:01;;;;;;;6.20;2.30;;;1.80;96.90;;;;;;5021545;28;20100;-78
2021/03/05 05:07:26;;;;;;;5.50;3.00;;;1.80;96.70;;;;;;4992109;28;20038;-78
2021/03/05 05:09:52;;;;;;;2.95;2.30;;;1.70;96.80;;;;;;4992408;28;20401;-78
2021/03/05 05:12:18;;;;;;;5.95;2.50;;;1.70;96.80;;;;;;4979926;28;20507;-79
2021/03/05 05:14:44;;;;;;;3.65;1.95;;;1.60;96.60;;;;;;5007351;28;20057;-79
2021/03/05 05:17:10;;;;;;;7.50;2.35;;;1.70;96.60;;;;;;4992222;28;20033;-78
2021/03/05 05:19:35;;;;;;;4.80;2.83;;;1.70;96.60;;;;;;4992092;28;20066;-79
2021/03/05 05:22:01;;;;;;;4.80;2.33;;;1.50;96.60;;;;;;5019353;28;20138;-77
2021/03/05 05:24:26;;;;;;;4.32;2.30;;;1.50;96.60;;;;;;4973816;28;20049;-77
2021/03/05 05:26:52;;;;;;;3.63;2.13;;;1.50;96.40;;;;;;4990989;28;20034;-77
2021/03/05 05:29:17;;;;;;;7.70;2.88;;;1.50;96.30;;;;;;4989649;28;20033;-77
2021/03/05 05:31:43;;;;;;;4.30;2.38;;;1.40;96.30;;;;;;5011523;28;20037;-78
2021/03/05 05:34:18;;;;;;;6.13;2.22;;;1.20;96.00;;;;;;4964787;28;20108;-78
2021/03/05 05:36:43;;;;;;;4.80;2.10;;;1.20;95.90;;;;;;4976688;28;20030;-77
2021/03/05 05:39:09;;;;;;;4.93;2.25;;;1.10;95.90;;;;;;4992281;28;20501;-78
2021/03/05 05:41:34;;;;;;;2.50;1.70;;;0.90;95.80;;;;;;4991715;28;20053;-77
2021/03/05 05:44:00;;;;;;;4.03;1.85;;;0.80;95.70;;;;;;4993101;28;20033;-78
2021/03/05 05:46:26;;;;;;;4.07;2.42;;;0.70;95.70;;;;;;4971216;28;20405;-77
2021/03/05 05:48:52;;;;;;;4.55;2.03;;;0.60;95.70;;;;;;4993254;28;20033;-77
2021/03/05 05:51:24;;;;;;;11.07;2.03;;;0.40;95.60;;;;;;4976106;28;20040;-76
2021/03/05 05:53:50;;;;;;;7.50;2.47;;;0.20;95.50;;;;;;4974025;28;20065;-77
2021/03/05 05:56:16;;;;;;;4.80;1.85;;;0.20;95.70;;;;;;5005232;28;20100;-77
2021/03/05 05:58:43;;;;;;;6.97;2.60;;;0.20;95.40;;;;;;4971559;28;20112;-76
2021/03/05 06:01:08;;;;;;;9.13;2.45;;;0.20;95.20;;;;;;4996913;28;20091;-76
2021/03/05 06:03:34;;;;;;;3.72;2.05;;;0.00;95.30;;;;;;4965213;28;20411;-77
2021/03/05 06:05:59;;;;;;;2.45;1.73;;;-0.10;95.30;;;;;;4991897;28;20476;-79
2021/03/05 06:08:25;;;;;;;2.83;1.70;;;-0.20;95.40;;;;;;5008007;28;20041;-79
2021/03/05 06:10:53;;;;;;;5.22;2.05;;;-0.30;95.20;;;;;;4991051;28;20133;-79
2021/03/05 06:13:19;;;;;;;6.55;2.35;;;-0.30;95.20;;;;;;5014037;28;20041;-79
2021/03/05 06:15:44;;;;;;;4.50;1.83;;;-0.40;95.00;;;;;;5006528;28;20045;-79
2021/03/05 06:18:28;;;;;;;6.63;2.35;;;-0.40;95.00;;;;;;5008362;28;20485;-79
2021/03/05 06:20:53;;;;;;;2.75;2.15;;;-0.40;95.20;;;;;;4995744;28;20529;-79
2021/03/05 06:23:19;;;;;;;5.07;1.80;;;-0.50;95.30;;;;;;5009378;28;20111;-80
2021/03/05 06:25:44;;;;;;;5.28;2.22;;;-0.50;95.40;;;;;;5008444;28;20034;-79
2021/03/05 06:28:14;;;;;;;7.05;2.45;;;-0.50;95.30;;;;;;4999379;28;20394;-80
2021/03/05 06:30:40;;;;;;;10.25;1.98;;;-0.40;95.20;;;;;;4994871;28;20048;-79
2021/03/05 06:33:26;;;;;;;5.72;2.17;;;-0.40;95.20;;;;;;5008839;28;20034;-79
2021/03/05 06:35:52;;;;;;;;;;;-0.50;95.30;;;;;;5030319;28;20041;-77
2021/03/05 06:38:37;;;;;;;4.18;2.35;;;-0.60;95.10;;;;;;4995306;28;19913;-79
2021/03/05 06:41:24;;;;;;;5.70;2.25;;;-0.60;95.00;;;;;;5015503;28;20480;-79
2021/03/05 06:43:54;;;;;;;7.70;1.63;;;-0.70;95.20;;;;;;5012990;28;20036;-79
2021/03/05 06:46:26;;;;;;;4.55;2.10;;;-0.80;95.30;;;;;;5011362;28;20037;-79
2021/03/05 06:48:53;;;;;;;4.90;2.33;;;-0.80;95.20;;;;;;5011133;28;20029;-79
2021/03/05 06:51:19;;;;;;;5.53;2.35;;;-0.80;95.20;;;;;;4991534;28;20502;-79
2021/03/05 06:53:44;;;;;;;5.30;2.45;;;-0.90;95.50;;;;;;4995156;28;20084;-79
2021/03/05 06:56:25;;;;;;;5.15;2.20;;;-0.90;95.20;;;;;;5001978;28;20501;-79
2021/03/05 06:59:09;;;;;;;3.83;2.20;;;-0.80;95.30;;;;;;4990463;28;20468;-79
2021/03/05 07:01:45;;;;;;;5.65;2.28;;;-0.70;95.10;;;;;;4992983;28;20493;-80
2021/03/05 07:04:12;;;;;;;3.28;2.08;;;-0.80;95.40;;;;;;5025142;28;20033;-80
2021/03/05 07:06:41;;;;;;;9.35;2.80;;;-0.90;95.00;;;;;;4992923;28;20045;-79
2021/03/05 07:09:07;;;;;;;3.53;2.28;;;-0.90;95.40;;;;;;4987255;28;20412;-79
2021/03/05 07:11:40;;;;;;;5.93;2.25;;;-0.90;95.50;;;;;;5007595;28;20365;-80
2021/03/05 07:14:08;;;;;;;8.63;2.42;;;-0.80;95.30;;;;;;5021354;28;20033;-79
2021/03/05 07:16:49;;;;;;;9.05;2.30;;;-1.00;95.20;;;;;;4993894;28;20063;-79
2021/03/05 07:19:21;;;;;;;9.10;2.33;;;-1.00;95.60;;;;;;4984777;28;20330;-80
2021/03/05 07:21:47;;;;;;;8.35;2.22;;;-1.00;95.50;;;;;;4994013;28;20052;-79
2021/03/05 07:24:14;;;;;;;7.32;2.08;;;-1.00;95.50;;;;;;4993140;28;20030;-79
2021/03/05 07:26:44;;;;;;;4.07;2.30;;;-1.00;95.50;;;;;;4993560;28;20611;-80
2021/03/05 07:29:24;;;;;;;8.54;2.31;;;-0.80;95.20;;;;;;4645973;28;10001997;-79
2021/03/05 07:32:05;;;;;;;8.23;2.17;;;-0.90;95.20;;;;;;5002470;28;20084;-79
2021/03/05 07:34:33;;;;;;;4.93;2.08;;;-0.90;95.50;;;;;;4986977;28;20048;-79
2021/03/05 07:37:00;;;;;;;7.38;2.80;;;-0.90;95.40;;;;;;5007030;28;20156;-80
2021/03/05 07:39:34;;;;;;;8.63;2.83;;;-0.90;95.60;;;;;;4991059;28;20044;-80
2021/03/05 07:42:00;;;;;;;5.82;2.38;;;-0.60;95.50;;;;;;4992199;28;20346;-79
2021/03/05 07:44:25;;;;;;;6.22;2.85;;;-0.70;95.60;;;;;;4989997;28;20025;-79
2021/03/05 07:46:51;;;;;;;8.07;3.67;;;-0.60;95.60;;;;;;4979808;28;20037;-80
2021/03/05 07:49:21;;;;;;;7.63;3.00;;;-0.30;95.10;;;;;;5007726;28;20053;-79
2021/03/05 07:51:46;;;;;;;4.93;2.40;;;-0.60;95.40;;;;;;4971998;28;20493;-79
2021/03/05 07:54:12;;;;;;;6.28;2.42;;;-0.80;95.60;;;;;;4990827;28;20087;-79
2021/03/05 07:56:44;;;;;;;4.15;2.40;;;-0.80;95.70;;;;;;5008387;28;20030;-79
2021/03/05 07:59:10;;;;;;;10.45;3.63;;;-0.70;96.00;;;;;;5024437;28;20032;-79
2021/03/05 08:01:51;;;;;;;3.60;1.83;;;-0.70;96.00;;;;;;4992238;28;20029;-79
2021/03/05 08:04:17;;;;;;;11.38;3.08;;;-0.60;95.90;;;;;;5020832;28;20493;-80
2021/03/05 08:06:44;;;;;;;9.52;2.92;;;-0.50;95.90;;;;;;4991375;28;20096;-79
2021/03/05 08:09:10;;;;;;;8.57;2.03;;;-0.50;95.90;;;;;;5009826;28;20040;-79
2021/03/05 08:11:38;;;;;;;7.28;2.20;;;-0.50;96.00;;;;;;5009244;28;20501;-80
2021/03/05 08:14:19;;;;;;;5.95;2.58;;;-0.40;96.00;;;;;;5023420;28;20113;-79
2021/03/05 08:16:44;;;;;;;8.52;2.40;;;-0.30;95.80;;;;;;5010492;28;20041;-79
2021/03/05 08:19:12;;;;;;;7.82;3.28;;;-0.40;96.00;;;;;;4998434;28;20088;-79
2021/03/05 08:21:58;;;;;;;9.65;3.05;;;-0.40;96.00;;;;;;5006879;28;20047;-79
2021/03/05 08:24:25;;;;;;;6.65;3.90;;;-0.20;96.10;;;;;;5006169;28;20033;-79
2021/03/05 08:27:00;;;;;;;6.25;2.90;;;0.00;95.80;;;;;;4992377;28;20111;-79
2021/03/05 08:29:47;;;;;;;5.28;2.92;;;-0.10;95.80;;;;;;5012106;28;20080;-79
2021/03/05 08:32:31;;;;;;;;;;;-0.10;95.80;;;;;;5019722;28;20017;-79
2021/03/05 08:34:57;;;;;;;8.25;3.15;;;0.00;95.90;;;;;;5021909;28;19944;-79
2021/03/05 08:37:27;;;;;;;8.73;3.20;;;0.00;95.90;;;;;;4973615;28;20030;-79
2021/03/05 08:39:52;;;;;;;7.53;3.15;;;0.00;95.90;;;;;;4993752;28;20037;-79
2021/03/05 08:42:28;;;;;;;9.10;3.17;;;0.20;95.90;;;;;;4975464;28;20040;-79
2021/03/05 08:45:13;;;;;;;5.75;3.28;;;0.20;96.10;;;;;;4991364;28;20041;-77
2021/03/05 08:47:49;;;;;;;7.55;3.00;;;0.30;96.20;;;;;;5003253;28;20037;-77
2021/03/05 08:50:16;;;;;;;7.80;3.83;;;0.30;96.10;;;;;;4999945;28;20486;-80
2021/03/05 08:52:43;;;;;;;12.07;4.80;;;0.50;96.10;;;;;;4996115;28;20029;-77
2021/03/05 08:55:09;;;;;;;18.98;5.10;;;0.60;96.10;;;;;;4998291;28;20464;-77
2021/03/05 08:57:52;;;;;;;20.98;7.63;;;0.60;96.10;;;;;;4992153;28;20039;-77
2021/03/05 09:00:22;;;;;;;11.13;5.57;;;0.70;96.10;;;;;;4986712;28;20034;-77
2021/03/05 09:02:49;;;;;;;12.38;5.47;;;0.90;95.90;;;;;;5011320;28;20034;-78
2021/03/05 09:05:24;;;;;;;14.10;6.20;;;1.00;95.70;;;;;;4970634;28;20331;-78
2021/03/05 09:07:54;;;;;;;9.80;4.90;;;1.00;95.80;;;;;;4989332;28;20493;-78
2021/03/05 09:10:20;;;;;;;17.50;6.25;;;1.10;95.70;;;;;;4995515;28;20029;-77
2021/03/05 09:12:59;;;;;;;13.52;7.78;;;1.10;95.60;;;;;;4992089;28;20066;-78
2021/03/05 09:15:37;;;;;;;14.40;5.32;;;1.00;95.80;;;;;;4986391;28;20383;-78
2021/03/05 09:18:02;;;;;;;12.23;5.97;;;1.00;95.70;;;;;;5004981;28;20026;-78
2021/03/05 09:20:45;;;;;;;18.60;5.68;;;0.90;96.00;;;;;;4980487;28;20401;-78
2021/03/05 09:23:14;;;;;;;16.80;6.72;;;1.00;95.90;;;;;;4997327;28;20401;-78
2021/03/05 09:25:50;;;;;;;18.85;6.90;;;1.20;95.90;;;;;;4989046;28;20049;-79
2021/03/05 09:28:16;;;;;;;13.38;6.00;;;1.40;95.40;;;;;;5003106;28;20049;-78
2021/03/05 09:30:49;;;;;;;21.80;8.05;;;1.70;94.90;;;;;;5008761;28;20486;-78
2021/03/05 09:33:15;;;;;;;14.93;6.93;;;1.40;95.10;;;;;;4997722;28;20041;-78
2021/03/05 09:35:40;;;;;;;15.10;5.25;;;1.50;95.60;;;;;;4965508;28;20026;-78
2021/03/05 09:38:07;;;;;;;8.75;4.32;;;2.10;95.40;;;;;;4970792;28;20140;-78
2021/03/05 09:40:33;;;;;;;12.35;5.60;;;2.60;95.00;;;;;;4991446;28;20490;-77
2021/03/05 09:42:59;;;;;;;12.23;5.00;;;2.90;94.40;;;;;;5023117;28;20084;-78
2021/03/05 09:45:37;;;;;;;9.98;4.20;;;3.00;94.00;;;;;;5008882;28;20045;-78
2021/03/05 09:48:04;;;;;;;8.57;4.22;;;3.00;95.10;;;;;;5007477;28;20511;-78
2021/03/05 09:50:30;;;;;;;9.20;3.75;;;3.50;95.00;;;;;;4973195;28;20037;-78
2021/03/05 09:52:55;;;;;;;9.77;3.72;;;3.80;94.60;;;;;;5008403;28;20029;-78
2021/03/05 09:55:28;;;;;;;9.70;3.28;;;3.80;94.70;;;;;;5005515;28;20033;-78
2021/03/05 09:57:54;;;;;;;6.43;3.33;;;4.00;94.30;;;;;;4991565;28;20362;-77
2021/03/05 10:00:30;;;;;;;9.68;2.83;;;4.20;94.70;;;;;;4990438;28;20509;-78
2021/03/05 10:03:09;;;;;;;5.03;2.45;;;4.30;94.80;;;;;;4991590;28;20539;-78
2021/03/05 10:05:37;;;;;;;6.03;2.55;;;4.30;94.90;;;;;;4992497;28;20068;-78
2021/03/05 10:08:28;;;;;;;8.75;2.20;;;4.00;94.60;;;;;;4995043;28;20492;-77
2021/03/05 10:11:10;;;;;;;4.38;2.20;;;4.30;95.10;;;;;;5000122;28;20057;-78
2021/03/05 10:13:44;;;;;;;5.05;2.08;;;4.60;94.30;;;;;;4987583;28;20041;-78
2021/03/05 10:16:11;;;;;;;5.70;2.15;;;4.40;95.40;;;;;;5004476;28;20038;-78
2021/03/05 10:18:37;;;;;;;3.22;1.42;;;4.60;95.10;;;;;;4984976;28;20355;-78
2021/03/05 10:21:03;;;;;;;6.70;3.25;;;4.50;94.20;;;;;;4992314;28;20441;-77
2021/03/05 10:23:29;;;;;;;2.85;1.10;;;3.80;94.80;;;;;;4973742;28;20034;-77
2021/03/05 10:25:54;;;;;;;5.88;2.47;;;3.90;95.30;;;;;;5002127;28;20477;-77
2021/03/05 10:28:29;;;;;;;3.47;1.38;;;3.60;94.60;;;;;;4971343;28;20480;-77
2021/03/05 10:30:54;;;;;;;3.90;1.50;;;3.80;94.80;;;;;;5005643;28;20033;-77
2021/03/05 10:33:38;;;;;;;7.57;3.25;;;3.70;94.70;;;;;;4995534;28;20034;-77
2021/03/05 10:36:04;;;;;;;5.68;2.55;;;3.70;94.90;;;;;;5023511;28;20382;-78
2021/03/05 10:38:30;;;;;;;5.57;1.70;;;3.80;94.00;;;;;;4993749;28;20049;-77
2021/03/05 10:40:56;;;;;;;8.07;1.63;;;3.40;94.80;;;;;;4989750;28;20496;-78
2021/03/05 10:43:21;;;;;;;5.10;1.52;;;4.00;95.10;;;;;;4973620;28;20046;-77
2021/03/05 10:45:47;;;;;;;3.28;1.70;;;3.50;94.20;;;;;;5002648;28;20366;-77
2021/03/05 10:48:13;;;;;;;2.33;1.50;;;4.00;94.60;;;;;;5001190;28;20061;-77
2021/03/05 10:50:38;;;;;;;4.15;0.93;;;3.40;93.90;;;;;;4965969;28;20370;-77
2021/03/05 10:53:04;;;;;;;5.00;1.30;;;3.40;94.30;;;;;;4963090;28;20545;-77
2021/03/05 10:55:30;;;;;;;4.18;1.63;;;3.20;94.30;;;;;;4999921;28;20041;-77
2021/03/05 10:57:55;;;;;;;2.05;1.13;;;3.20;94.20;;;;;;4980926;28;20093;-78
2021/03/05 11:00:21;;;;;;;2.47;1.02;;;3.70;93.80;;;;;;5006449;28;20045;-78
2021/03/05 11:02:46;;;;;;;5.03;1.10;;;4.10;93.40;;;;;;4658813;28;9999918;-77
2021/03/05 11:05:12;;;;;;;6.43;1.48;;;3.80;92.60;;;;;;4984813;28;20803;-77
2021/03/05 11:07:38;;;;;;;4.18;1.27;;;4.40;95.10;;;;;;5005888;28;20038;-77
2021/03/05 11:10:04;;;;;;;2.70;1.35;;;5.30;93.60;;;;;;4988034;28;20326;-78
2021/03/05 11:12:29;;;;;;;4.18;1.60;;;5.20;91.80;;;;;;4986628;28;20053;-77
2021/03/05 11:14:55;;;;;;;2.25;0.85;;;4.30;91.70;;;;;;4989086;28;20030;-77
2021/03/05 11:17:21;;;;;;;3.80;1.30;;;3.70;92.20;;;;;;4992583;28;20477;-77
2021/03/05 11:19:47;;;;;;;3.60;1.25;;;3.80;92.60;;;;;;4992179;28;20030;-77
2021/03/05 11:22:13;;;;;;;3.80;1.83;;;3.60;92.60;;;;;;5006094;28;20033;-77
2021/03/05 11:24:38;;;;;;;5.25;1.42;;;3.60;91.60;;;;;;4990184;28;20373;-77
2021/03/05 11:27:04;;;;;;;2.47;1.15;;;4.40;94.70;;;;;;4995646;28;20108;-77
2021/03/05 11:29:31;;;;;;;5.38;1.45;;;5.40;92.30;;;;;;4992784;28;20028;-77
2021/03/05 11:31:57;;;;;;;4.72;1.38;;;6.20;91.20;;;;;;5006123;28;20072;-77
2021/03/05 11:34:22;;;;;;;2.05;0.90;;;5.40;91.50;;;;;;4988267;28;20525;-77
2021/03/05 11:36:49;;;;;;;3.08;0.90;;;4.70;91.20;;;;;;5007159;28;20044;-77
2021/03/05 11:39:14;;;;;;;1.73;0.82;;;4.00;91.50;;;;;;4993339;28;20104;-77
2021/03/05 11:41:40;;;;;;;2.00;1.13;;;4.50;92.90;;;;;;4996309;28;20478;-77
2021/03/05 11:44:06;;;;;;;2.55;0.82;;;5.00;93.00;;;;;;5007481;28;20029;-77
2021/03/05 11:46:31;;;;;;;4.13;1.08;;;5.40;91.30;;;;;;4970699;28;20021;-77
2021/03/05 11:48:57;;;;;;;3.60;0.75;;;5.00;90.30;;;;;;5023642;28;20022;-77
2021/03/05 11:51:22;;;;;;;1.90;0.70;;;4.70;90.30;;;;;;4971579;28;20030;-77
2021/03/05 11:53:48;;;;;;;1.48;0.70;;;4.30;90.00;;;;;;5007865;28;20045;-78
2021/03/05 11:56:13;;;;;;;2.85;0.70;;;5.40;91.60;;;;;;4645917;28;10000494;-77
2021/03/05 11:58:39;;;;;;;1.55;0.90;;;5.40;89.20;;;;;;4986822;28;20392;-77
2021/03/05 12:01:05;;;;;;;2.03;0.82;;;5.20;91.40;;;;;;5006450;28;20481;-76
2021/03/05 12:03:30;;;;;;;1.70;1.05;;;5.20;90.80;;;;;;5003441;28;20513;-77
2021/03/05 12:05:56;;;;;;;1.23;0.80;;;5.20;91.00;;;;;;5004946;28;20049;-76
2021/03/05 12:08:21;;;;;;;4.10;0.63;;;5.00;90.60;;;;;;4990195;28;20033;-77
2021/03/05 12:10:47;;;;;;;3.05;0.90;;;5.10;90.60;;;;;;5010023;28;20042;-76
2021/03/05 12:13:13;;;;;;;1.50;0.88;;;5.80;86.80;;;;;;4987176;28;20041;-76
2021/03/05 12:15:39;;;;;;;3.25;1.00;;;5.90;88.30;;;;;;4993804;28;20091;-76
2021/03/05 12:18:05;;;;;;;2.58;1.00;;;5.00;90.30;;;;;;5006814;28;20087;-76
2021/03/05 12:20:31;;;;;;;3.25;0.77;;;5.40;90.00;;;;;;4989586;28;20607;-76
2021/03/05 12:22:56;;;;;;;1.70;0.70;;;5.40;89.70;;;;;;5017903;28;20037;-77
2021/03/05 12:25:22;;;;;;;2.22;0.63;;;5.00;89.80;;;;;;4989060;28;20116;-76
2021/03/05 12:27:47;;;;;;;2.55;0.70;;;5.00;89.90;;;;;;5004334;28;20093;-76
2021/03/05 12:30:13;;;;;;;1.20;0.75;;;6.20;90.40;;;;;;5009028;28;20041;-77
2021/03/05 12:32:39;;;;;;;1.98;0.95;;;6.20;87.10;;;;;;4976098;28;20416;-76
2021/03/05 12:35:05;;;;;;;2.85;0.85;;;4.90;87.10;;;;;;4988896;28;20111;-77
2021/03/05 12:37:31;;;;;;;3.03;0.75;;;4.60;85.60;;;;;;4972694;28;20148;-77
2021/03/05 12:39:56;;;;;;;2.45;0.85;;;5.40;89.20;;;;;;5025805;28;20096;-77
2021/03/05 12:42:22;;;;;;;3.53;0.70;;;4.80;87.00;;;;;;4989334;28;20037;-77
2021/03/05 12:44:47;;;;;;;3.33;1.05;;;6.10;88.00;;;;;;5026637;28;20033;-77
2021/03/05 12:47:13;;;;;;;1.45;0.80;;;5.50;87.50;;;;;;4989809;28;20157;-76
2021/03/05 12:49:38;;;;;;;2.10;0.82;;;5.00;88.00;;;;;;4989499;28;20095;-76
2021/03/05 12:52:04;;;;;;;12.50;1.48;;;5.30;87.90;;;;;;5002195;28;20032;-77
2021/03/05 12:54:29;;;;;;;2.88;0.82;;;6.30;84.30;;;;;;5003314;28;20381;-77